Time;durP1;ratioP1;P1;durP2;ratioP2;P2;SDS_P1;SDS_P2;PMS_P1;PMS_P2;Temp;Humidity;BMP_temperature;BMP_pressure;BME280_temperature;BME280_humidity;BME280_pressure;Samples;Min_cycle;Max_cycle;Signal;HPM_P1;HPM_P2
2021/07/03 00:01:15;;;;;;;;;;;17.50;88.00;;;;;;5034072;28;20029;-76
2021/07/03 00:03:41;;;;;;;13.63;7.80;;;17.50;88.30;;;;;;5033420;28;20412;-77
2021/07/03 00:06:07;;;;;;;15.70;8.73;;;17.40;88.70;;;;;;5033280;28;20109;-76
2021/07/03 00:08:33;;;;;;;;;;;17.50;88.00;;;;;;5034140;28;20112;-77
2021/07/03 00:11:00;;;;;;;12.20;7.65;;;17.50;88.00;;;;;;5033265;28;19909;-77
2021/07/03 00:13:26;;;;;;;15.05;8.45;;;17.60;87.60;;;;;;5033295;28;20014;-76
2021/07/03 00:15:53;;;;;;;;;;;17.50;87.90;;;;;;5033699;28;20052;-77
2021/07/03 00:18:19;;;;;;;14.48;8.68;;;17.40;88.30;;;;;;5031985;28;20362;-78
2021/07/03 00:20:45;;;;;;;11.88;7.85;;;17.50;88.00;;;;;;5033221;28;20013;-77
2021/07/03 00:23:10;;;;;;;;;;;17.50;88.40;;;;;;5032219;28;20532;-77
2021/07/03 00:25:36;;;;;;;17.17;8.38;;;17.30;88.60;;;;;;5033507;28;19909;-78
2021/07/03 00:28:02;;;;;;;;;;;17.30;89.10;;;;;;5033581;28;20018;-76
2021/07/03 00:30:28;;;;;;;13.50;7.75;;;17.20;89.50;;;;;;5033090;28;19912;-77
2021/07/03 00:32:54;;;;;;;;;;;17.30;89.40;;;;;;5033536;28;20401;-78
2021/07/03 00:35:20;;;;;;;13.15;8.32;;;17.40;88.90;;;;;;5032746;28;19909;-78
2021/07/03 00:37:46;;;;;;;;;;;17.30;89.60;;;;;;5033471;28;20052;-77
2021/07/03 00:40:12;;;;;;;12.63;8.13;;;17.30;88.70;;;;;;5031727;28;19955;-77
2021/07/03 00:42:38;;;;;;;13.43;8.23;;;17.30;88.60;;;;;;5032896;28;20120;-76
2021/07/03 00:45:04;;;;;;;;;;;17.30;88.90;;;;;;5033376;28;20075;-76
2021/07/03 00:47:30;;;;;;;13.57;9.13;;;17.30;88.70;;;;;;5031676;28;20292;-76
2021/07/03 00:49:56;;;;;;;;;;;17.30;89.20;;;;;;5033381;28;20029;-77
2021/07/03 00:52:22;;;;;;;15.68;8.23;;;17.20;89.20;;;;;;5032909;28;20372;-76
2021/07/03 00:54:49;;;;;;;12.98;8.60;;;17.30;88.60;;;;;;5032920;28;20021;-78
2021/07/03 00:57:15;;;;;;;16.00;9.90;;;17.20;89.00;;;;;;5033118;28;20056;-77
2021/07/03 00:59:45;;;;;;;12.07;7.97;;;17.10;89.40;;;;;;5032858;28;20022;-76
2021/07/03 01:02:13;;;;;;;14.55;8.52;;;17.20;89.40;;;;;;5031517;28;20493;-76
2021/07/03 01:04:39;;;;;;;14.98;8.85;;;17.20;89.50;;;;;;5032831;28;20075;-76
2021/07/03 01:07:07;;;;;;;13.40;8.23;;;17.10;89.50;;;;;;5032758;28;20080;-77
2021/07/03 01:09:33;;;;;;;15.38;8.43;;;17.20;89.50;;;;;;5032721;28;20032;-76
2021/07/03 01:11:59;;;;;;;12.32;8.40;;;17.20;89.10;;;;;;5032916;28;20057;-76
2021/07/03 01:14:25;;;;;;;14.38;8.65;;;17.20;89.20;;;;;;5031464;28;20370;-76
2021/07/03 01:16:51;;;;;;;;;;;17.10;89.70;;;;;;5034585;28;20083;-77
2021/07/03 01:19:17;;;;;;;15.70;7.50;;;17.10;89.90;;;;;;5036712;28;20357;-76
2021/07/03 01:21:50;;;;;;;12.68;7.47;;;17.10;89.50;;;;;;5035183;28;20022;-77
2021/07/03 01:24:17;;;;;;;11.88;7.93;;;17.20;89.60;;;;;;5036745;28;20022;-77
2021/07/03 01:26:45;;;;;;;12.50;7.78;;;17.30;88.90;;;;;;5036411;28;20045;-77
2021/07/03 01:29:11;;;;;;;12.52;8.35;;;17.30;88.70;;;;;;5036281;28;20036;-77
2021/07/03 01:31:40;;;;;;;;;;;17.30;88.90;;;;;;5035411;28;20064;-76
2021/07/03 01:34:07;;;;;;;12.88;7.82;;;17.30;89.20;;;;;;5036195;28;19940;-75
2021/07/03 01:36:32;;;;;;;13.98;7.60;;;17.30;89.40;;;;;;5036065;28;20036;-76
2021/07/03 01:38:58;;;;;;;;;;;17.20;89.80;;;;;;5036663;28;20021;-77
2021/07/03 01:41:24;;;;;;;14.65;8.32;;;17.30;89.70;;;;;;5036199;28;20365;-78
2021/07/03 01:43:49;;;;;;;;;;;17.30;89.70;;;;;;5036364;28;20080;-79
2021/07/03 01:46:16;;;;;;;15.50;8.60;;;17.30;89.90;;;;;;5035857;28;20441;-77
2021/07/03 01:48:42;;;;;;;;;;;17.20;90.30;;;;;;5036385;28;20053;-77
2021/07/03 01:51:08;;;;;;;16.88;8.52;;;17.30;90.40;;;;;;5035781;28;19909;-76
2021/07/03 01:53:33;;;;;;;;;;;17.20;90.50;;;;;;5036307;28;20048;-76
2021/07/03 01:55:59;;;;;;;12.35;7.95;;;17.30;90.50;;;;;;5035767;28;20377;-78
2021/07/03 01:58:26;;;;;;;15.73;8.55;;;17.20;90.70;;;;;;5035772;28;20497;-78
2021/07/03 02:00:55;;;;;;;13.77;8.38;;;17.30;90.70;;;;;;5035705;28;20048;-77
2021/07/03 02:03:25;;;;;;;14.55;9.05;;;17.30;90.60;;;;;;5035705;28;20172;-77
2021/07/03 02:05:52;;;;;;;15.05;10.32;;;17.30;90.90;;;;;;5035667;28;20036;-77
2021/07/03 02:08:18;;;;;;;14.25;9.75;;;17.30;90.80;;;;;;5035600;28;20079;-76
2021/07/03 02:10:44;;;;;;;15.52;9.00;;;17.20;91.10;;;;;;5034191;28;20401;-78
2021/07/03 02:13:10;;;;;;;;;;;17.30;91.20;;;;;;5035929;28;20021;-77
2021/07/03 02:15:36;;;;;;;13.80;8.35;;;17.30;91.10;;;;;;5035450;28;20324;-76
2021/07/03 02:18:01;;;;;;;;;;;17.30;91.20;;;;;;5035813;28;20032;-77
2021/07/03 02:20:28;;;;;;;14.43;9.10;;;17.40;91.20;;;;;;5035336;28;20361;-77
2021/07/03 02:22:54;;;;;;;13.43;8.18;;;17.30;91.40;;;;;;5035429;28;20087;-76
2021/07/03 02:25:19;;;;;;;;;;;17.20;91.70;;;;;;5035710;28;20452;-76
2021/07/03 02:27:45;;;;;;;14.40;8.43;;;17.10;92.60;;;;;;5035185;28;19931;-77
2021/07/03 02:30:13;;;;;;;;;;;17.10;92.60;;;;;;5035706;28;20100;-74
2021/07/03 02:32:39;;;;;;;12.10;7.82;;;17.10;93.00;;;;;;5035317;28;19915;-78
2021/07/03 02:35:06;;;;;;;12.73;7.93;;;17.20;92.80;;;;;;5035299;28;20076;-76
2021/07/03 02:37:32;;;;;;;15.32;8.70;;;17.20;92.70;;;;;;5034813;28;20493;-78
2021/07/03 02:39:58;;;;;;;;;;;17.30;92.30;;;;;;5035449;28;20037;-77
2021/07/03 02:42:24;;;;;;;13.90;8.52;;;17.40;92.10;;;;;;5033710;28;19905;-76
2021/07/03 02:44:49;;;;;;;;;;;17.30;92.20;;;;;;5035379;28;20485;-77
2021/07/03 02:47:15;;;;;;;21.67;9.35;;;17.20;92.50;;;;;;5033609;28;20293;-76
2021/07/03 02:49:40;;;;;;;;;;;17.20;92.50;;;;;;5035226;28;20118;-78
2021/07/03 02:52:06;;;;;;;14.38;9.30;;;17.20;92.50;;;;;;5034730;28;19909;-76
2021/07/03 02:54:32;;;;;;;;;;;17.20;92.40;;;;;;5035209;28;20061;-76
2021/07/03 02:56:58;;;;;;;13.85;9.13;;;17.20;92.50;;;;;;5034674;28;19911;-77
2021/07/03 02:59:24;;;;;;;;;;;17.20;92.40;;;;;;5035189;28;20029;-76
2021/07/03 03:01:51;;;;;;;14.02;8.63;;;17.20;92.60;;;;;;5034605;28;19909;-77
2021/07/03 03:04:17;;;;;;;15.55;9.10;;;17.30;92.50;;;;;;5034588;28;20018;-77
2021/07/03 03:06:43;;;;;;;16.45;9.55;;;17.20;92.50;;;;;;5034519;28;20477;-77
2021/07/03 03:09:08;;;;;;;;;;;17.20;92.50;;;;;;5034900;28;20084;-77
2021/07/03 03:11:34;;;;;;;16.65;9.27;;;17.20;92.50;;;;;;5034366;28;20011;-77
2021/07/03 03:14:00;;;;;;;;;;;17.20;92.50;;;;;;5034728;28;20033;-78
2021/07/03 03:16:26;;;;;;;14.85;9.98;;;17.20;92.30;;;;;;5034360;28;19936;-77
2021/07/03 03:18:54;;;;;;;16.15;9.32;;;17.40;92.40;;;;;;5034406;28;20107;-76
2021/07/03 03:21:19;;;;;;;15.55;9.10;;;17.40;92.00;;;;;;5034358;28;20037;-76
2021/07/03 03:23:45;;;;;;;;;;;17.40;91.90;;;;;;5034496;28;20335;-77
2021/07/03 03:26:11;;;;;;;17.50;9.50;;;17.30;92.40;;;;;;5034131;28;19905;-77
2021/07/03 03:28:37;;;;;;;15.70;9.15;;;17.20;92.80;;;;;;5034155;28;20025;-77
2021/07/03 03:31:03;;;;;;;;;;;17.20;92.80;;;;;;5033019;28;20036;-76
2021/07/03 03:33:29;;;;;;;22.27;10.00;;;17.20;92.50;;;;;;5034021;28;19912;-76
2021/07/03 03:35:55;;;;;;;;;;;17.30;92.40;;;;;;5034385;28;20026;-76
2021/07/03 03:38:20;;;;;;;14.43;10.05;;;17.10;92.80;;;;;;5032169;28;19921;-77
2021/07/03 03:40:46;;;;;;;;;;;17.10;93.10;;;;;;5033788;28;20526;-78
2021/07/03 03:43:12;;;;;;;16.17;9.82;;;17.20;93.00;;;;;;5033842;28;20281;-77
2021/07/03 03:45:38;;;;;;;;;;;17.10;92.90;;;;;;5034217;28;20045;-77
2021/07/03 03:48:07;;;;;;;15.82;9.05;;;17.10;93.60;;;;;;5033752;28;20253;-78
2021/07/03 03:50:33;;;;;;;17.05;10.23;;;17.00;93.30;;;;;;5033895;28;20026;-78
2021/07/03 03:53:00;;;;;;;12.30;8.52;;;17.20;92.90;;;;;;5033631;28;20545;-77
2021/07/03 03:55:28;;;;;;;13.13;9.20;;;17.10;93.20;;;;;;5033636;28;20501;-76
2021/07/03 03:57:53;;;;;;;15.05;9.82;;;17.20;92.90;;;;;;5033642;28;20032;-78
2021/07/03 04:00:19;;;;;;;;;;;17.30;92.80;;;;;;5034007;28;20105;-77
2021/07/03 04:02:45;;;;;;;17.25;9.52;;;17.20;92.90;;;;;;5033575;28;20388;-76
2021/07/03 04:05:12;;;;;;;17.20;10.18;;;17.20;93.20;;;;;;5032209;28;20454;-76
2021/07/03 04:07:38;;;;;;;13.60;9.52;;;17.10;93.60;;;;;;5033475;28;20024;-77
2021/07/03 04:10:06;;;;;;;17.23;9.40;;;17.10;93.30;;;;;;5033438;28;20060;-77
2021/07/03 04:12:32;;;;;;;13.90;9.15;;;17.30;93.20;;;;;;5032022;28;20083;-77
2021/07/03 04:14:59;;;;;;;17.33;10.23;;;17.40;92.90;;;;;;5033398;28;20482;-77
2021/07/03 04:17:25;;;;;;;13.52;9.65;;;17.20;93.30;;;;;;5033331;28;20109;-76
2021/07/03 04:19:51;;;;;;;14.18;9.63;;;17.20;93.30;;;;;;5033234;28;20104;-76
2021/07/03 04:22:17;;;;;;;13.35;8.98;;;17.20;93.50;;;;;;5033410;28;20036;-76
2021/07/03 04:24:43;;;;;;;;;;;17.10;93.60;;;;;;5032358;28;20025;-75
2021/07/03 04:27:09;;;;;;;15.13;9.43;;;17.30;93.20;;;;;;5033183;28;19912;-76
2021/07/03 04:29:34;;;;;;;;;;;17.10;93.70;;;;;;5033611;28;20037;-76
2021/07/03 04:32:01;;;;;;;18.70;11.23;;;17.00;94.10;;;;;;5033098;28;19982;-76
2021/07/03 04:34:26;;;;;;;17.15;10.70;;;17.00;94.30;;;;;;5033131;28;20017;-76
2021/07/03 04:36:52;;;;;;;;;;;16.90;94.60;;;;;;5033319;28;20141;-76
2021/07/03 04:39:18;;;;;;;17.17;9.70;;;17.00;94.30;;;;;;5033317;28;19905;-77
2021/07/03 04:41:44;;;;;;;;;;;17.10;94.20;;;;;;5033485;28;20041;-78
2021/07/03 04:44:11;;;;;;;20.27;10.63;;;17.00;94.40;;;;;;5031743;28;19905;-78
2021/07/03 04:46:37;;;;;;;14.38;9.73;;;17.00;94.40;;;;;;5033280;28;20104;-76
2021/07/03 04:49:03;;;;;;;;;;;17.10;94.30;;;;;;5032121;28;20124;-76
2021/07/03 04:51:29;;;;;;;19.08;10.05;;;17.10;94.40;;;;;;5035589;28;20368;-78
2021/07/03 04:53:54;;;;;;;14.98;9.73;;;17.10;94.40;;;;;;5036995;28;20021;-77
2021/07/03 04:56:20;;;;;;;;;;;17.20;94.20;;;;;;5037419;28;20036;-76
2021/07/03 04:58:46;;;;;;;15.88;10.02;;;17.20;94.20;;;;;;5035634;28;20273;-77
2021/07/03 05:01:11;;;;;;;;;;;17.20;94.40;;;;;;5037345;28;20075;-76
2021/07/03 05:03:37;;;;;;;16.45;10.82;;;17.30;94.10;;;;;;5036909;28;19905;-78
2021/07/03 05:06:03;;;;;;;14.48;10.23;;;17.20;94.30;;;;;;5035543;28;20116;-77
2021/07/03 05:08:29;;;;;;;;;;;17.20;94.80;;;;;;5037209;28;20109;-77
2021/07/03 05:10:55;;;;;;;13.60;9.27;;;17.20;94.70;;;;;;5036661;28;19975;-78
2021/07/03 05:13:20;;;;;;;;;;;17.20;94.90;;;;;;5037041;28;20030;-77
2021/07/03 05:15:46;;;;;;;16.80;11.02;;;17.30;94.80;;;;;;5036627;28;19912;-77
2021/07/03 05:18:12;;;;;;;;;;;17.30;94.70;;;;;;5037030;28;20036;-78
2021/07/03 05:20:38;;;;;;;16.75;9.40;;;17.40;94.70;;;;;;5036571;28;19905;-76
2021/07/03 05:23:03;;;;;;;;;;;17.50;94.60;;;;;;5036821;28;20020;-77
2021/07/03 05:25:30;;;;;;;13.77;8.27;;;17.60;94.60;;;;;;5035197;28;19908;-78
2021/07/03 05:27:56;;;;;;;14.27;9.15;;;17.60;94.40;;;;;;5036496;28;20022;-78
2021/07/03 05:30:21;;;;;;;15.43;8.80;;;17.60;94.70;;;;;;5036392;28;20151;-78
2021/07/03 05:32:47;;;;;;;14.27;8.15;;;17.80;94.60;;;;;;5036303;28;20101;-76
2021/07/03 05:35:13;;;;;;;;;;;17.80;94.40;;;;;;5036934;28;20021;-77
2021/07/03 05:37:41;;;;;;;13.88;7.85;;;17.90;94.20;;;;;;5036185;28;19917;-77
2021/07/03 05:40:09;;;;;;;12.50;7.97;;;18.10;94.00;;;;;;5034863;28;20032;-78
2021/07/03 05:42:35;;;;;;;10.93;6.35;;;18.30;93.50;;;;;;5034787;28;20394;-77
2021/07/03 05:45:01;;;;;;;10.20;6.68;;;18.50;93.10;;;;;;5034760;28;20029;-77
2021/07/03 05:47:27;;;;;;;;;;;18.60;92.90;;;;;;5036651;28;20091;-77
2021/07/03 05:49:53;;;;;;;11.30;5.05;;;18.50;93.00;;;;;;5036116;28;20331;-78
2021/07/03 05:52:18;;;;;;;;;;;18.60;93.00;;;;;;5036406;28;20108;-76
2021/07/03 05:54:44;;;;;;;11.35;5.13;;;18.70;92.70;;;;;;5035895;28;20293;-76
2021/07/03 05:57:10;;;;;;;;;;;18.90;92.30;;;;;;5036503;28;20037;-78
2021/07/03 05:59:35;;;;;;;8.77;4.38;;;18.80;92.10;;;;;;5034439;28;20254;-77
2021/07/03 06:02:01;;;;;;;7.05;3.80;;;18.80;92.40;;;;;;5035419;28;20096;-77
2021/07/03 06:04:27;;;;;;;7.50;4.22;;;18.70;92.70;;;;;;5035772;28;20086;-77
2021/07/03 06:06:53;;;;;;;8.85;4.10;;;18.70;92.70;;;;;;5035678;28;20025;-77
2021/07/03 06:09:18;;;;;;;;;;;18.70;92.70;;;;;;5036014;28;20103;-77
2021/07/03 06:11:47;;;;;;;6.75;3.38;;;18.70;92.80;;;;;;5035796;28;19944;-75
2021/07/03 06:14:13;;;;;;;8.38;3.95;;;18.70;92.40;;;;;;5035655;28;20028;-76
2021/07/03 06:16:38;;;;;;;7.13;3.67;;;18.80;92.60;;;;;;5035504;28;20022;-77
2021/07/03 06:19:04;;;;;;;7.53;3.92;;;18.90;92.10;;;;;;5035229;28;20490;-76
2021/07/03 06:21:31;;;;;;;8.75;3.63;;;19.00;91.70;;;;;;5035353;28;20029;-78
2021/07/03 06:23:56;;;;;;;7.43;3.55;;;19.00;92.10;;;;;;5035326;28;20060;-76
2021/07/03 06:26:22;;;;;;;9.63;3.55;;;18.90;91.90;;;;;;5035391;28;20060;-78
2021/07/03 06:28:48;;;;;;;6.82;3.35;;;19.10;91.90;;;;;;5035286;28;20033;-77
2021/07/03 06:31:14;;;;;;;6.70;3.20;;;19.40;91.70;;;;;;5033894;28;20030;-78
2021/07/03 06:33:40;;;;;;;9.13;3.50;;;19.70;90.80;;;;;;5035312;28;20033;-77
2021/07/03 06:36:06;;;;;;;7.22;3.55;;;19.70;90.20;;;;;;5035113;28;20018;-76
2021/07/03 06:38:32;;;;;;;6.93;3.15;;;19.60;90.20;;;;;;5034775;28;20045;-77
2021/07/03 06:40:58;;;;;;;8.13;3.42;;;19.80;90.20;;;;;;5035029;28;20096;-77
2021/07/03 06:43:23;;;;;;;6.45;3.33;;;19.90;90.10;;;;;;5033721;28;20074;-77
2021/07/03 06:45:49;;;;;;;6.95;3.25;;;20.00;89.90;;;;;;5034931;28;20059;-76
2021/07/03 06:48:15;;;;;;;5.78;3.15;;;19.90;89.20;;;;;;5034971;28;20021;-78
2021/07/03 06:50:41;;;;;;;6.13;3.00;;;20.30;88.90;;;;;;5033554;28;20022;-77
2021/07/03 06:53:07;;;;;;;5.97;2.83;;;20.40;88.00;;;;;;5034838;28;20469;-78
2021/07/03 06:55:33;;;;;;;5.55;2.60;;;20.40;87.50;;;;;;5033500;28;20026;-77
2021/07/03 06:57:58;;;;;;;6.28;2.50;;;20.20;88.80;;;;;;5034803;28;20021;-76
2021/07/03 07:00:24;;;;;;;6.70;2.97;;;20.20;88.20;;;;;;5034744;28;20079;-78
2021/07/03 07:02:50;;;;;;;6.28;2.90;;;19.90;89.20;;;;;;5034649;28;20031;-77
2021/07/03 07:05:16;;;;;;;8.23;3.17;;;19.60;89.60;;;;;;5033251;28;20025;-77
2021/07/03 07:07:42;;;;;;;4.82;2.67;;;19.70;90.20;;;;;;5034734;28;20516;-78
2021/07/03 07:10:08;;;;;;;5.80;2.90;;;20.00;90.00;;;;;;5033110;28;20470;-77
2021/07/03 07:12:34;;;;;;;6.25;2.40;;;20.70;86.50;;;;;;5034314;28;20022;-77
2021/07/03 07:15:00;;;;;;;4.70;2.42;;;20.90;86.20;;;;;;5033497;28;20037;-76
2021/07/03 07:17:26;;;;;;;4.78;2.10;;;20.60;86.20;;;;;;5034347;28;20017;-75
2021/07/03 07:19:52;;;;;;;3.88;2.08;;;20.70;86.40;;;;;;5034338;28;20017;-76
2021/07/03 07:22:17;;;;;;;3.40;1.67;;;20.90;85.50;;;;;;5034302;28;20053;-76
2021/07/03 07:24:43;;;;;;;2.92;1.50;;;21.00;85.70;;;;;;5033974;28;20486;-77
2021/07/03 07:27:09;;;;;;;1.70;1.40;;;21.10;83.20;;;;;;5034135;28;20029;-79
2021/07/03 07:29:35;;;;;;;3.17;1.50;;;21.30;84.80;;;;;;5034448;28;20389;-78
2021/07/03 07:32:01;;;;;;;2.75;1.30;;;21.50;83.30;;;;;;5033903;28;20029;-76
2021/07/03 07:34:27;;;;;;;2.08;1.35;;;21.20;82.40;;;;;;5034154;28;20026;-78
2021/07/03 07:36:53;;;;;;;4.22;1.52;;;20.90;83.90;;;;;;5033792;28;20081;-77
2021/07/03 07:39:19;;;;;;;2.83;1.40;;;20.70;84.00;;;;;;5034028;28;20019;-76
2021/07/03 07:41:46;;;;;;;1.98;1.10;;;20.60;84.90;;;;;;5016244;28;20494;-77
2021/07/03 07:44:12;;;;;;;2.38;1.20;;;20.90;85.50;;;;;;5034031;28;20041;-78
2021/07/03 07:46:38;;;;;;;2.47;1.23;;;20.80;84.50;;;;;;5033810;28;20441;-77
2021/07/03 07:49:05;;;;;;;2.28;1.23;;;20.90;83.90;;;;;;5033775;28;20103;-76
2021/07/03 07:51:31;;;;;;;4.40;1.10;;;21.10;83.60;;;;;;5033734;28;20052;-78
2021/07/03 07:53:57;;;;;;;1.48;0.90;;;21.40;81.90;;;;;;5033735;28;20022;-77
2021/07/03 07:56:24;;;;;;;1.58;0.93;;;21.30;81.60;;;;;;5033701;28;20025;-77
2021/07/03 07:58:50;;;;;;;1.67;1.10;;;21.40;81.70;;;;;;5033630;28;20478;-75
2021/07/03 08:01:16;;;;;;;2.20;1.10;;;21.20;81.40;;;;;;5033638;28;20101;-77
2021/07/03 08:03:42;;;;;;;1.73;1.00;;;21.20;82.20;;;;;;5033562;28;20437;-78
2021/07/03 08:06:09;;;;;;;2.13;1.20;;;21.20;82.30;;;;;;5033486;28;20021;-75
2021/07/03 08:08:36;;;;;;;1.65;1.00;;;21.20;83.20;;;;;;5033516;28;20025;-77
2021/07/03 08:11:02;;;;;;;2.13;1.10;;;21.30;82.50;;;;;;5033430;28;20052;-77
2021/07/03 08:13:28;;;;;;;1.83;1.10;;;21.40;82.60;;;;;;5033438;28;20033;-77
2021/07/03 08:15:53;;;;;;;2.50;1.10;;;21.70;81.20;;;;;;5033377;28;20040;-76
2021/07/03 08:18:20;;;;;;;3.97;1.20;;;21.90;80.60;;;;;;5033328;28;20496;-78
2021/07/03 08:20:46;;;;;;;5.03;1.30;;;21.80;79.20;;;;;;5033393;28;20017;-77
2021/07/03 08:23:12;;;;;;;4.30;1.20;;;21.80;79.40;;;;;;5033153;28;20022;-77
2021/07/03 08:25:38;;;;;;;5.43;1.30;;;21.70;77.70;;;;;;5032889;28;20382;-79
2021/07/03 08:28:04;;;;;;;6.20;1.50;;;21.50;78.60;;;;;;5032182;28;20029;-76
2021/07/03 08:30:31;;;;;;;6.05;1.42;;;21.40;78.30;;;;;;5031463;28;20037;-75
2021/07/03 08:32:57;;;;;;;4.97;1.48;;;21.30;78.60;;;;;;5033459;28;20034;-77
2021/07/03 08:35:23;;;;;;;7.50;1.60;;;21.20;79.80;;;;;;5032950;28;20024;-78
2021/07/03 08:37:49;;;;;;;5.60;1.60;;;21.20;79.30;;;;;;5033181;28;20060;-76
2021/07/03 08:40:16;;;;;;;8.55;1.80;;;21.40;77.70;;;;;;5033020;28;20028;-77
2021/07/03 08:42:43;;;;;;;5.40;1.55;;;21.80;76.80;;;;;;5031915;28;20393;-77
2021/07/03 08:45:10;;;;;;;6.45;1.60;;;22.20;74.30;;;;;;5033545;28;20470;-76
2021/07/03 08:47:42;;;;;;;7.40;1.65;;;22.10;74.70;;;;;;5042217;28;20028;-78
2021/07/03 08:50:10;;;;;;;3.83;1.33;;;21.90;75.50;;;;;;5052494;28;20036;-76
2021/07/03 08:52:36;;;;;;;6.53;1.70;;;21.90;75.50;;;;;;5051570;28;20497;-78
2021/07/03 08:55:11;;;;;;;5.65;1.52;;;21.70;75.80;;;;;;5051826;28;20022;-77
2021/07/03 08:58:04;;;;;;;8.45;2.10;;;21.50;75.50;;;;;;5053045;28;20052;-76
2021/07/03 09:00:42;;;;;;;8.50;1.80;;;21.80;74.00;;;;;;5053132;28;20053;-75
2021/07/03 09:03:19;;;;;;;7.38;1.70;;;21.70;74.60;;;;;;5053131;28;20036;-76
2021/07/03 09:05:51;;;;;;;6.97;1.75;;;21.90;74.40;;;;;;5052684;28;20035;-76
2021/07/03 09:08:18;;;;;;;9.20;2.15;;;22.10;74.30;;;;;;5054662;28;20067;-77
2021/07/03 09:10:43;;;;;;;9.65;1.90;;;22.40;73.00;;;;;;5053046;28;20021;-77
2021/07/03 09:13:10;;;;;;;9.48;2.25;;;22.60;70.80;;;;;;5051571;28;20035;-78
2021/07/03 09:15:42;;;;;;;10.38;2.20;;;23.00;70.40;;;;;;5052941;28;20017;-77
2021/07/03 09:18:13;;;;;;;10.10;2.13;;;23.50;67.50;;;;;;5052268;28;20071;-78
2021/07/03 09:20:51;;;;;;;6.97;1.90;;;24.20;65.00;;;;;;5053010;28;20465;-77
2021/07/03 09:23:21;;;;;;;9.18;1.92;;;24.20;63.80;;;;;;5052667;28;20025;-76
2021/07/03 09:25:48;;;;;;;9.88;2.00;;;24.00;64.40;;;;;;5052796;28;20025;-76
2021/07/03 09:28:16;;;;;;;7.80;1.80;;;23.70;65.10;;;;;;5051856;28;20040;-76
2021/07/03 09:30:44;;;;;;;14.15;2.58;;;23.30;66.40;;;;;;5014616;28;20025;-76
2021/07/03 09:33:10;;;;;;;8.15;2.03;;;23.00;66.80;;;;;;5032610;28;20079;-76
2021/07/03 09:35:36;;;;;;;8.25;1.90;;;22.90;67.50;;;;;;5031234;28;20120;-77
2021/07/03 09:38:08;;;;;;;10.27;2.10;;;23.20;67.50;;;;;;5034521;28;20084;-78
2021/07/03 09:40:35;;;;;;;8.00;2.10;;;23.60;66.50;;;;;;5036081;28;20155;-79
2021/07/03 09:43:09;;;;;;;7.90;1.88;;;24.30;65.60;;;;;;5036345;28;20034;-77
2021/07/03 09:45:37;;;;;;;8.23;2.03;;;24.60;65.30;;;;;;5036132;28;20036;-77
2021/07/03 09:48:11;;;;;;;11.10;2.25;;;25.10;60.80;;;;;;5034666;28;20401;-76
2021/07/03 09:50:39;;;;;;;10.00;2.10;;;24.90;61.00;;;;;;5035834;28;20033;-78
2021/07/03 09:53:06;;;;;;;12.23;1.95;;;24.40;63.20;;;;;;5035702;28;20021;-77
2021/07/03 09:55:34;;;;;;;11.18;2.47;;;24.00;65.80;;;;;;5041319;28;20021;-76
2021/07/03 09:58:00;;;;;;;10.02;2.15;;;23.40;65.10;;;;;;5056275;28;20492;-77
2021/07/03 10:00:26;;;;;;;6.38;1.92;;;23.20;66.50;;;;;;5036905;28;20029;-78
2021/07/03 10:02:52;;;;;;;9.63;2.63;;;23.30;67.00;;;;;;5036142;28;20033;-77
2021/07/03 10:05:21;;;;;;;8.75;2.00;;;23.80;66.60;;;;;;5035836;28;20469;-77
2021/07/03 10:07:55;;;;;;;8.50;2.00;;;24.30;65.20;;;;;;5035936;28;20527;-77
2021/07/03 10:10:24;;;;;;;8.98;1.92;;;24.00;65.30;;;;;;5035344;28;20026;-77
2021/07/03 10:13:04;;;;;;;8.60;1.90;;;23.70;66.50;;;;;;5035581;28;20101;-77
2021/07/03 10:15:32;;;;;;;8.85;2.00;;;23.30;66.40;;;;;;5035616;28;20393;-77
2021/07/03 10:18:11;;;;;;;7.85;1.80;;;23.00;68.90;;;;;;5034074;28;20021;-77
2021/07/03 10:20:38;;;;;;;7.95;1.45;;;23.10;68.70;;;;;;5035402;28;20486;-79
2021/07/03 10:23:05;;;;;;;6.78;1.50;;;23.00;69.40;;;;;;5035470;28;20041;-77
2021/07/03 10:25:42;;;;;;;6.32;1.60;;;23.40;69.10;;;;;;5033943;28;20037;-76
2021/07/03 10:28:13;;;;;;;6.63;1.30;;;23.20;67.20;;;;;;5035507;28;20032;-76
2021/07/03 10:30:42;;;;;;;4.85;1.38;;;23.30;67.40;;;;;;5035486;28;20030;-77
2021/07/03 10:33:12;;;;;;;4.38;1.33;;;24.10;64.90;;;;;;5034476;28;20112;-75
2021/07/03 10:35:51;;;;;;;4.72;1.40;;;24.80;62.80;;;;;;5035540;28;20053;-78
2021/07/03 10:38:28;;;;;;;6.85;1.50;;;24.70;63.20;;;;;;5033578;28;20041;-78
2021/07/03 10:41:24;;;;;;;4.22;1.30;;;24.50;62.70;;;;;;5035051;28;20387;-77
2021/07/03 10:44:06;;;;;;;4.10;1.10;;;24.40;63.30;;;;;;5035367;28;20021;-79
2021/07/03 10:46:41;;;;;;;4.75;1.10;;;23.80;62.30;;;;;;5034843;28;20025;-78
2021/07/03 10:49:16;;;;;;;4.07;1.27;;;24.10;63.00;;;;;;5033728;28;20022;-75
2021/07/03 10:51:44;;;;;;;9.20;1.10;;;24.10;62.50;;;;;;5033542;28;20283;-77
2021/07/03 10:54:10;;;;;;;5.10;1.10;;;23.80;60.60;;;;;;5035003;28;20022;-78
2021/07/03 10:56:48;;;;;;;6.53;1.30;;;23.60;61.30;;;;;;5034796;28;20095;-77
2021/07/03 10:59:16;;;;;;;2.33;1.20;;;24.10;60.70;;;;;;5034741;28;20030;-76
2021/07/03 11:01:43;;;;;;;3.13;1.30;;;24.90;59.70;;;;;;5033350;28;20397;-79
2021/07/03 11:04:15;;;;;;;4.15;1.30;;;25.80;58.30;;;;;;5034667;28;20446;-77
2021/07/03 11:06:59;;;;;;;5.03;1.50;;;27.30;54.90;;;;;;5034657;28;20026;-78
2021/07/03 11:09:28;;;;;;;2.95;1.20;;;29.10;51.20;;;;;;5034639;28;20021;-78
2021/07/03 11:11:57;;;;;;;6.57;1.40;;;29.50;49.50;;;;;;5033194;28;20120;-79
2021/07/03 11:14:24;;;;;;;3.90;1.40;;;29.10;48.50;;;;;;5033189;28;20060;-76
2021/07/03 11:16:58;;;;;;;5.15;1.35;;;30.20;48.10;;;;;;5034430;28;20455;-78
2021/07/03 11:19:25;;;;;;;4.15;1.40;;;29.90;45.20;;;;;;5032834;28;20397;-78
2021/07/03 11:22:04;;;;;;;3.42;1.25;;;30.30;46.20;;;;;;5034241;28;20437;-77
2021/07/03 11:24:41;;;;;;;3.95;1.02;;;29.30;48.20;;;;;;5034211;28;20096;-77
2021/07/03 11:27:07;;;;;;;3.63;1.23;;;28.30;48.60;;;;;;5034293;28;20033;-79
2021/07/03 11:29:33;;;;;;;5.03;1.20;;;28.00;50.70;;;;;;5034084;28;20466;-75
2021/07/03 11:32:06;;;;;;;4.45;1.45;;;27.70;50.60;;;;;;5033994;28;20030;-78
2021/07/03 11:34:33;;;;;;;4.80;1.30;;;28.50;51.70;;;;;;5034024;28;20022;-78
2021/07/03 11:36:59;;;;;;;3.00;1.40;;;27.80;50.30;;;;;;5033895;28;20049;-79
2021/07/03 11:39:25;;;;;;;1.60;1.10;;;28.60;49.60;;;;;;5032626;28;20030;-78
2021/07/03 11:42:02;;;;;;;3.42;1.40;;;29.30;47.70;;;;;;5032700;28;20033;-77
2021/07/03 11:44:28;;;;;;;4.47;1.38;;;30.60;47.70;;;;;;5034029;28;20156;-78
2021/07/03 11:46:54;;;;;;;3.92;1.20;;;31.20;46.40;;;;;;5033772;28;20503;-77
2021/07/03 11:49:19;;;;;;;6.20;1.40;;;30.50;46.80;;;;;;5033764;28;20100;-77
2021/07/03 11:51:45;;;;;;;3.88;1.40;;;29.80;47.20;;;;;;5033663;28;20398;-77
2021/07/03 11:54:11;;;;;;;3.70;1.20;;;29.10;48.60;;;;;;5033870;28;20079;-78
2021/07/03 11:56:37;;;;;;;5.18;1.40;;;27.90;50.30;;;;;;5033693;28;20026;-76
2021/07/03 11:59:03;;;;;;;5.88;1.40;;;28.10;50.30;;;;;;5033593;28;20031;-79
2021/07/03 12:01:30;;;;;;;3.55;1.30;;;29.70;47.80;;;;;;5033315;28;20408;-77
2021/07/03 12:03:57;;;;;;;3.20;1.30;;;29.80;47.40;;;;;;5033556;28;20071;-78
2021/07/03 12:06:23;;;;;;;6.43;1.30;;;30.80;46.90;;;;;;5033457;28;20117;-79
2021/07/03 12:08:50;;;;;;;6.60;1.67;;;30.60;47.40;;;;;;5033200;28;20036;-77
2021/07/03 12:11:25;;;;;;;2.58;1.20;;;30.00;46.90;;;;;;5033201;28;20135;-77
2021/07/03 12:13:53;;;;;;;5.45;1.25;;;29.60;48.00;;;;;;5033431;28;20048;-78
2021/07/03 12:16:21;;;;;;;5.35;1.40;;;29.10;49.40;;;;;;5032113;28;20370;-78
2021/07/03 12:18:49;;;;;;;6.20;1.77;;;28.40;50.20;;;;;;5033484;28;20014;-79
2021/07/03 12:21:18;;;;;;;5.38;1.50;;;29.00;50.60;;;;;;5032140;28;20497;-78
2021/07/03 12:23:47;;;;;;;7.68;1.60;;;29.30;50.00;;;;;;5031899;28;20030;-78
2021/07/03 12:26:14;;;;;;;5.85;1.50;;;30.30;49.20;;;;;;5033333;28;20029;-78
2021/07/03 12:29:05;;;;;;;4.28;1.10;;;30.00;46.60;;;;;;5033107;28;20026;-76
2021/07/03 12:31:46;;;;;;;4.30;1.67;;;28.60;49.50;;;;;;5033302;28;20124;-77
2021/07/03 12:34:21;;;;;;;5.55;1.65;;;28.30;50.20;;;;;;5033383;28;20026;-77
2021/07/03 12:36:50;;;;;;;5.03;1.52;;;28.40;50.70;;;;;;5031434;28;20058;-78
2021/07/03 12:39:22;;;;;;;3.60;1.30;;;28.30;50.10;;;;;;5033432;28;20026;-77
2021/07/03 12:41:57;;;;;;;5.82;1.30;;;29.30;48.50;;;;;;5033332;28;20033;-78
2021/07/03 12:44:43;;;;;;;1.30;1.00;;;29.50;48.50;;;;;;5033100;28;20025;-77
2021/07/03 12:47:12;;;;;;;3.55;1.48;;;29.70;49.30;;;;;;5033516;28;20049;-77
2021/07/03 12:49:49;;;;;;;3.83;1.23;;;31.00;48.10;;;;;;5033055;28;20020;-79
2021/07/03 12:52:15;;;;;;;4.00;1.40;;;31.50;46.60;;;;;;5033232;28;20033;-79
2021/07/03 12:54:45;;;;;;;3.40;1.25;;;29.90;46.20;;;;;;5031762;28;20025;-78
2021/07/03 12:57:12;;;;;;;4.15;1.30;;;29.20;47.10;;;;;;5031799;28;20022;-77